地図

経路データ

SID SEASON NUMBER BASIN SUBBASIN NAME ISO_TIME NATURE LAT LON WMO_WIND WMO_PRES WMO_AGENCY TRACK_TYPE DIST2LAND LANDFALL IFLAG USA_AGENCY USA_ATCF_ID USA_LAT USA_LON USA_RECORD USA_STATUS USA_WIND USA_PRES USA_SSHS USA_R34_NE USA_R34_SE USA_R34_SW USA_R34_NW USA_R50_NE USA_R50_SE USA_R50_SW USA_R50_NW USA_R64_NE USA_R64_SE USA_R64_SW USA_R64_NW USA_POCI USA_ROCI USA_RMW USA_EYE TOKYO_LAT TOKYO_LON TOKYO_GRADE TOKYO_WIND TOKYO_PRES TOKYO_R50_DIR TOKYO_R50_LONG TOKYO_R50_SHORT TOKYO_R30_DIR TOKYO_R30_LONG TOKYO_R30_SHORT TOKYO_LAND CMA_LAT CMA_LON CMA_CAT CMA_WIND CMA_PRES HKO_LAT HKO_LON HKO_CAT HKO_WIND HKO_PRES NEWDELHI_LAT NEWDELHI_LON NEWDELHI_GRADE NEWDELHI_WIND NEWDELHI_PRES NEWDELHI_CI NEWDELHI_DP NEWDELHI_POCI REUNION_LAT REUNION_LON REUNION_TYPE REUNION_WIND REUNION_PRES REUNION_TNUM REUNION_CI REUNION_RMW REUNION_R34_NE REUNION_R34_SE REUNION_R34_SW REUNION_R34_NW REUNION_R50_NE REUNION_R50_SE REUNION_R50_SW REUNION_R50_NW REUNION_R64_NE REUNION_R64_SE REUNION_R64_SW REUNION_R64_NW BOM_LAT BOM_LON BOM_TYPE BOM_WIND BOM_PRES BOM_TNUM BOM_CI BOM_RMW BOM_R34_NE BOM_R34_SE BOM_R34_SW BOM_R34_NW BOM_R50_NE BOM_R50_SE BOM_R50_SW BOM_R50_NW BOM_R64_NE BOM_R64_SE BOM_R64_SW BOM_R64_NW BOM_ROCI BOM_POCI BOM_EYE BOM_POS_METHOD BOM_PRES_METHOD NADI_LAT NADI_LON NADI_CAT NADI_WIND NADI_PRES WELLINGTON_LAT WELLINGTON_LON WELLINGTON_WIND WELLINGTON_PRES DS824_LAT DS824_LON DS824_STAGE DS824_WIND DS824_PRES TD9636_LAT TD9636_LON TD9636_STAGE TD9636_WIND TD9636_PRES TD9635_LAT TD9635_LON TD9635_WIND TD9635_PRES TD9635_ROCI NEUMANN_LAT NEUMANN_LON NEUMANN_CLASS NEUMANN_WIND NEUMANN_PRES MLC_LAT MLC_LON MLC_CLASS MLC_WIND MLC_PRES USA_GUST BOM_GUST BOM_GUST_PER REUNION_GUST REUNION_GUST_PER USA_SEAHGT USA_SEARAD_NE USA_SEARAD_SE USA_SEARAD_SW USA_SEARAD_NW STORM_SPEED STORM_DIR
1991299N27295 1991 83 NA NA GRACE 1991-10-25 18:00:00 SS 27.1000 -64.9000 25 1008 hurdat_atl main 975 974 O_____________ hurdat_atl AL111991 27.1000 -64.9000 SD 25 1008 -2 3 266
1991299N27295 1991 83 NA NA GRACE 1991-10-25 21:00:00 SS 27.0901 -65.0550 main 971 967 P_____________ AL111991 27.0901 -65.0550 SD 27 1007 -2 3 270
1991299N27295 1991 83 NA NA GRACE 1991-10-26 00:00:00 SS 27.1000 -65.2000 30 1007 hurdat_atl main 967 962 O_____________ hurdat_atl AL111991 27.1000 -65.2000 SD 30 1007 -2 3 282
1991299N27295 1991 83 NA NA GRACE 1991-10-26 03:00:00 SS 27.1424 -65.3350 main 962 958 P_____________ AL111991 27.1424 -65.3350 SD 32 1006 -2 3 291
1991299N27295 1991 83 NA NA GRACE 1991-10-26 06:00:00 SS 27.2000 -65.5000 35 1005 hurdat_atl main 964 955 O_____________ hurdat_atl AL111991 27.2000 -65.5000 SS 35 1005 -2 4 286
1991299N27295 1991 83 NA NA GRACE 1991-10-26 09:00:00 SS 27.2425 -65.7351 main 955 951 P_____________ AL111991 27.2425 -65.7351 SS 35 1003 -2 5 283
1991299N27295 1991 83 NA NA GRACE 1991-10-26 12:00:00 SS 27.3000 -66.0000 35 1002 hurdat_atl main 952 943 O_____________ hurdat_atl AL111991 27.3000 -66.0000 SS 35 1002 -2 5 285
1991299N27295 1991 83 NA NA GRACE 1991-10-26 15:00:00 SS 27.3624 -66.2428 main 953 945 P_____________ AL111991 27.3624 -66.2428 SS 37 999 -2 5 294
1991299N27295 1991 83 NA NA GRACE 1991-10-26 18:00:00 SS 27.5000 -66.5000 40 997 hurdat_atl main 952 948 O_____________ hurdat_atl AL111991 27.5000 -66.5000 SS 40 997 -2 7 306
1991299N27295 1991 83 NA NA GRACE 1991-10-26 21:00:00 SS 27.7552 -66.8519 main 961 961 P_____________ AL111991 27.7552 -66.8519 SS 42 995 -2 8 318
1991299N27295 1991 83 NA NA GRACE 1991-10-27 00:00:00 SS 28.1000 -67.1000 45 993 hurdat_atl main 974 974 O_____________ hurdat_atl AL111991 28.1000 -67.1000 SS 45 993 -2 8 344
1991299N27295 1991 83 NA NA GRACE 1991-10-27 03:00:00 SS 28.4774 -67.0827 main 1009 1009 P_____________ AL111991 28.4774 -67.0827 SS 47 991 -2 8 13
1991299N27295 1991 83 NA NA GRACE 1991-10-27 06:00:00 SS 28.9000 -66.9000 50 990 hurdat_atl main 1056 1056 O_____________ hurdat_atl AL111991 28.9000 -66.9000 SS 50 990 -2 10 27
1991299N27295 1991 83 NA NA GRACE 1991-10-27 09:00:00 SS 29.3351 -66.5765 main 1103 1080 P_____________ AL111991 29.3351 -66.5765 SS 52 989 -2 10 26
1991299N27295 1991 83 NA NA GRACE 1991-10-27 12:00:00 SS 29.8000 -66.4000 55 988 hurdat_atl main 1080 1022 O_____________ hurdat_atl AL111991 29.8000 -66.4000 SS 55 988 -2 10 354
1991299N27295 1991 83 NA NA GRACE 1991-10-27 15:00:00 SS 30.3077 -66.6939 main 1022 949 P_____________ AL111991 30.3077 -66.6939 SS 57 987 -2 12 325
1991299N27295 1991 83 NA NA GRACE 1991-10-27 18:00:00 TS 30.8000 -67.2000 60 987 hurdat_atl main 949 884 O_____________ hurdat_atl AL111991 30.8000 -67.2000 TS 60 987 0 13 317
1991299N27295 1991 83 NA NA GRACE 1991-10-27 21:00:00 TS 31.2302 -67.6799 main 884 827 P_____________ AL111991 31.2302 -67.6799 TS 62 986 0 11 316
1991299N27295 1991 83 NA NA GRACE 1991-10-28 00:00:00 TS 31.6000 -68.1000 65 985 hurdat_atl main 827 785 O_____________ hurdat_atl AL111991 31.6000 -68.1000 HU 65 985 1 9 321
1991299N27295 1991 83 NA NA GRACE 1991-10-28 03:00:00 TS 31.9523 -68.3678 main 778 758 P_____________ AL111991 31.9523 -68.3678 HU 65 984 1 7 330
1991299N27295 1991 83 NA NA GRACE 1991-10-28 06:00:00 TS 32.2000 -68.5000 65 983 hurdat_atl main 758 744 O_____________ hurdat_atl AL111991 32.2000 -68.5000 HU 65 983 1 4 331
1991299N27295 1991 83 NA NA GRACE 1991-10-28 09:00:00 TS 32.2873 -68.5827 main 744 744 P_____________ AL111991 32.2873 -68.5827 HU 65 983 1 1 0
1991299N27295 1991 83 NA NA GRACE 1991-10-28 12:00:00 TS 32.3000 -68.5000 65 983 hurdat_atl main 752 752 O_____________ hurdat_atl AL111991 32.3000 -68.5000 HU 65 983 1 3 69
1991299N27295 1991 83 NA NA GRACE 1991-10-28 15:00:00 TS 32.4025 -68.2258 main 770 770 P_____________ AL111991 32.4025 -68.2258 HU 65 982 1 6 80
1991299N27295 1991 83 NA NA GRACE 1991-10-28 18:00:00 TS 32.4000 -67.8000 65 982 hurdat_atl main 802 802 O_____________ hurdat_atl AL111991 32.4000 -67.8000 HU 65 982 1 8 111
1991299N27295 1991 83 NA NA GRACE 1991-10-28 21:00:00 TS 32.1220 -67.3591 main 851 851 P_____________ AL111991 32.1220 -67.3591 HU 67 981 1 10 125
1991299N27295 1991 83 NA NA GRACE 1991-10-29 00:00:00 TS 31.8000 -66.8000 70 980 hurdat_atl main 917 917 O_____________ hurdat_atl AL111991 31.8000 -66.8000 HU 70 980 1 11 114
1991299N27295 1991 83 NA NA GRACE 1991-10-29 03:00:00 TS 31.6617 -66.1329 main 979 979 P_____________ AL111991 31.6617 -66.1329 HU 72 980 1 13 99
1991299N27295 1991 83 NA NA GRACE 1991-10-29 06:00:00 TS 31.6000 -65.3000 75 981 hurdat_atl main 1050 1050 O_____________ hurdat_atl AL111991 31.6000 -65.3000 HU 75 981 1 14 96
1991299N27295 1991 83 NA NA GRACE 1991-10-29 09:00:00 TS 31.5279 -64.5330 main 1122 1122 P_____________ AL111991 31.5279 -64.5330 HU 80 981 1 18 93
1991299N27295 1991 83 NA NA GRACE 1991-10-29 12:00:00 TS 31.5000 -63.2000 85 982 hurdat_atl main 1232 1232 O_____________ hurdat_atl AL111991 31.5000 -63.2000 HU 85 982 2 28 91
1991299N27295 1991 83 NA NA GRACE 1991-10-29 14:00:00 TS 31.5000 -61.8000 90 982 hurdat_atl main 1349 1353 O_____________ hurdat_atl AL111991 31.5000 -61.8000 W HU 90 982 2 36 86
1991299N27295 1991 83 NA NA GRACE 1991-10-29 15:00:00 TS 31.6399 -61.0837 main 1374 1345 P_____________ AL111991 31.6399 -61.0837 HU 86 2 39 67
1991299N27295 1991 83 NA NA GRACE 1991-10-29 18:00:00 ET 32.5000 -59.0000 75 hurdat_atl main 1341 O_____________ hurdat_atl AL111991 32.5000 -59.0000 EX 75 -4 39 64

IBTrACS Databaseについて

本データベースは、米国NOAAが公開する1842年以降の世界の熱帯低気圧のベストトラックデータアーカイブInternational Best Track Archive for Climate Stewardship (IBTrACS)を、ウェブで閲覧しやすい形式に変換したものです。

最終更新日:2021-12-03